createdAt,value
2018-01-17T10:35:44.413Z,935.31
2018-01-17T10:36:44.194Z,935.31
2018-01-17T10:37:44.186Z,935.26
2018-01-17T10:38:44.183Z,935.26
2018-01-17T10:39:44.168Z,935.34
2018-01-17T10:40:44.166Z,935.31
2018-01-17T10:41:44.149Z,935.37
2018-01-17T10:42:44.153Z,935.32
2018-01-17T10:43:44.136Z,935.38
2018-01-17T10:44:44.129Z,935.38
2018-01-17T10:45:44.135Z,935.38
2018-01-17T10:46:44.118Z,935.39
2018-01-17T10:47:44.112Z,935.38
2018-01-17T10:48:44.106Z,935.35
2018-01-17T10:49:44.101Z,935.34
2018-01-17T10:50:44.099Z,935.35
2018-01-17T10:51:44.094Z,935.35
2018-01-17T10:52:44.090Z,935.37
2018-01-17T10:53:44.082Z,935.35
2018-01-17T10:54:44.081Z,935.35
2018-01-17T10:55:44.074Z,935.35
2018-01-17T10:56:44.070Z,935.34
2018-01-17T10:57:44.067Z,935.35
2018-01-17T10:58:44.161Z,935.39
2018-01-17T10:59:44.062Z,935.40
2018-01-17T11:00:44.065Z,935.36
2018-01-17T11:01:44.077Z,935.41
2018-01-17T11:02:44.061Z,935.40
2018-01-17T11:03:44.047Z,935.40
2018-01-17T11:04:44.038Z,935.37
2018-01-17T11:05:44.046Z,935.35
2018-01-17T11:06:44.044Z,935.38
2018-01-17T11:07:44.037Z,935.40
2018-01-17T11:08:44.033Z,935.38
2018-01-17T11:09:44.030Z,935.37
2018-01-17T11:10:44.022Z,935.38
2018-01-17T11:11:44.016Z,935.41
2018-01-17T11:12:44.011Z,935.37
2018-01-17T11:13:44.018Z,935.40
2018-01-17T11:14:44.010Z,935.42
2018-01-17T11:15:44.006Z,935.40
2018-01-17T11:16:44.004Z,935.38
2018-01-17T11:17:44.000Z,935.42
2018-01-17T11:18:44.010Z,935.41
2018-01-17T11:19:43.998Z,935.41
2018-01-17T11:20:44.003Z,935.42
2018-01-17T11:21:43.997Z,935.45
2018-01-17T11:22:43.999Z,935.42
2018-01-17T11:23:43.992Z,935.41
2018-01-17T11:24:43.996Z,935.44
2018-01-17T11:25:43.981Z,935.43
2018-01-17T11:26:43.990Z,935.45
2018-01-17T11:27:43.977Z,935.42
2018-01-17T11:28:43.985Z,935.47
2018-01-17T11:29:43.990Z,935.47
2018-01-17T11:30:43.984Z,935.48
2018-01-17T11:31:43.980Z,935.45
2018-01-17T11:32:43.967Z,935.48
2018-01-17T11:33:43.975Z,935.47
2018-01-17T11:34:43.974Z,935.48
2018-01-17T11:35:43.973Z,935.49
2018-01-17T11:36:43.970Z,935.48
2018-01-17T11:37:43.969Z,935.46
2018-01-17T11:38:43.967Z,935.47
2018-01-17T11:39:43.956Z,935.45
2018-01-17T11:40:43.964Z,935.44
2018-01-17T11:41:43.952Z,935.45
2018-01-17T11:42:43.961Z,935.46
2018-01-17T11:43:43.951Z,935.44
2018-01-17T11:44:43.957Z,935.46
2018-01-17T11:45:43.956Z,935.46
2018-01-17T11:46:43.945Z,935.46
2018-01-17T11:47:43.954Z,935.47
2018-01-17T11:48:43.952Z,935.47
2018-01-17T11:49:43.940Z,935.47
2018-01-17T11:50:43.950Z,935.49
2018-01-17T11:51:43.949Z,935.49
2018-01-17T11:52:43.947Z,935.49
2018-01-17T11:53:43.946Z,935.52
2018-01-17T11:54:43.945Z,935.51
2018-01-17T11:55:43.947Z,935.47
2018-01-17T11:56:43.932Z,935.53
2018-01-17T11:57:44.192Z,935.50
2018-01-17T11:58:43.942Z,935.52
2018-01-17T11:59:43.940Z,935.50
2018-01-17T12:00:43.939Z,935.54
2018-01-17T12:01:43.928Z,935.53
2018-01-17T12:02:43.941Z,935.55
2018-01-17T12:03:43.937Z,935.55
2018-01-17T12:04:43.940Z,935.55
2018-01-17T12:05:43.936Z,935.56
2018-01-17T12:06:43.934Z,935.57
2018-01-17T12:07:43.934Z,935.58
2018-01-17T12:08:43.933Z,935.57
2018-01-17T12:09:43.932Z,935.55
2018-01-17T12:10:43.932Z,935.57
2018-01-17T12:11:43.931Z,935.54
2018-01-17T12:12:43.929Z,935.56
2018-01-17T12:13:43.931Z,935.56
2018-01-17T12:14:43.930Z,935.57
2018-01-17T12:15:43.930Z,935.58
2018-01-17T12:16:43.929Z,935.54
2018-01-17T12:17:43.928Z,935.53
2018-01-17T12:18:43.927Z,935.50
2018-01-17T12:19:43.927Z,935.52
2018-01-17T12:20:43.927Z,935.50
2018-01-17T12:21:43.926Z,935.49
2018-01-17T12:22:43.927Z,935.52
2018-01-17T12:23:43.927Z,935.50
2018-01-17T12:24:43.925Z,935.50
2018-01-17T12:25:43.928Z,935.51
2018-01-17T12:26:43.924Z,935.48
2018-01-17T12:27:43.926Z,935.47
2018-01-17T12:28:43.923Z,935.51
2018-01-17T12:29:43.923Z,935.48
2018-01-17T12:30:43.922Z,935.45
2018-01-17T12:31:43.922Z,935.47
2018-01-17T12:32:43.903Z,935.46
2018-01-17T12:33:43.902Z,935.46
2018-01-17T12:34:43.917Z,935.45
2018-01-17T12:35:43.903Z,935.44
2018-01-17T12:36:43.920Z,935.43
2018-01-17T12:37:43.902Z,935.45
2018-01-17T12:38:43.920Z,935.44
2018-01-17T12:39:43.903Z,935.46
2018-01-17T12:40:43.920Z,935.46
2018-01-17T12:41:43.901Z,935.41
2018-01-17T12:42:43.916Z,935.44
2018-01-17T12:43:43.915Z,935.45
2018-01-17T12:44:43.919Z,935.42
2018-01-17T12:45:43.900Z,935.44
2018-01-17T12:46:43.899Z,935.45
2018-01-17T12:47:43.896Z,935.42
2018-01-17T12:48:43.899Z,935.39
2018-01-17T12:49:43.919Z,935.42
2018-01-17T12:50:43.896Z,935.46
2018-01-17T12:51:43.919Z,935.43
2018-01-17T12:52:43.914Z,935.42
2018-01-17T12:53:43.900Z,935.41
2018-01-17T12:54:43.920Z,935.40
2018-01-17T12:55:43.904Z,935.41
2018-01-17T12:56:43.901Z,935.39
2018-01-17T12:57:43.898Z,935.41
2018-01-17T12:58:43.899Z,935.41
2018-01-17T12:59:43.919Z,935.41
2018-01-17T13:00:43.899Z,935.39
2018-01-17T13:01:43.906Z,935.40
2018-01-17T13:02:43.922Z,935.41
2018-01-17T13:03:43.908Z,935.41
2018-01-17T13:04:43.908Z,935.38
2018-01-17T13:05:43.912Z,935.37
2018-01-17T13:06:43.928Z,935.35
2018-01-17T13:07:43.929Z,935.35
2018-01-17T13:08:43.930Z,935.36
2018-01-17T13:09:43.917Z,935.33
2018-01-17T13:10:43.940Z,935.31
2018-01-17T13:11:43.937Z,935.33
2018-01-17T13:12:43.922Z,935.33
2018-01-17T13:13:43.925Z,935.34
2018-01-17T13:14:43.927Z,935.36
2018-01-17T13:15:43.944Z,935.33
2018-01-17T13:16:43.931Z,935.35
2018-01-17T13:17:43.933Z,935.37
2018-01-17T13:18:43.936Z,935.36
2018-01-17T13:19:43.953Z,935.36
2018-01-17T13:20:43.939Z,935.34
2018-01-17T13:21:43.942Z,935.36
2018-01-17T13:22:43.960Z,935.37
2018-01-17T13:23:43.962Z,935.35
2018-01-17T13:24:43.964Z,935.35
2018-01-17T13:25:43.952Z,935.36
2018-01-17T13:26:43.968Z,935.32
2018-01-17T13:27:43.956Z,935.31
2018-01-17T13:38:39.858Z,935.30
2018-01-17T13:39:39.855Z,935.29
2018-01-17T13:40:39.864Z,935.27
2018-01-17T13:41:39.867Z,935.27
2018-01-17T13:42:39.862Z,935.25
2018-01-17T13:43:39.861Z,935.18
2018-01-17T13:44:39.861Z,935.16
2018-01-17T13:45:39.862Z,935.20
2018-01-17T13:46:39.846Z,935.18
2018-01-17T13:47:39.862Z,935.16
2018-01-17T13:48:39.850Z,935.18
2018-01-17T13:49:39.869Z,935.24
2018-01-17T13:50:39.866Z,935.22
2018-01-17T13:51:39.870Z,935.21
2018-01-17T13:52:39.873Z,935.23
2018-01-17T13:53:39.860Z,935.19
2018-01-17T13:54:39.857Z,935.22
2018-01-17T13:55:39.863Z,935.20
2018-01-17T13:56:39.876Z,935.10
2018-01-17T13:57:39.867Z,935.14
2018-01-17T13:58:39.881Z,935.19
2018-01-17T13:59:39.885Z,935.16
2018-01-17T14:00:39.874Z,935.13
2018-01-17T14:01:39.888Z,935.13
2018-01-17T14:02:39.895Z,935.10
2018-01-17T14:03:39.882Z,935.06
2018-01-17T14:04:39.881Z,935.06
2018-01-17T14:05:39.888Z,935.05
2018-01-17T14:06:39.906Z,935.06
2018-01-17T14:07:39.908Z,935.02
2018-01-17T14:08:39.912Z,935.00
2018-01-17T14:09:39.896Z,935.05
2018-01-17T14:10:39.902Z,935.03
2018-01-17T14:11:39.918Z,934.99
2018-01-17T14:12:39.904Z,935.05
2018-01-17T14:13:39.908Z,935.05
2018-01-17T14:14:39.928Z,935.04
2018-01-17T14:15:39.931Z,935.01
2018-01-17T14:16:39.934Z,935.01
2018-01-17T14:17:39.927Z,935.04
2018-01-17T14:18:39.926Z,934.99
2018-01-17T14:19:39.934Z,935.03
2018-01-17T14:20:39.949Z,934.99
2018-01-17T14:21:39.952Z,934.98
2018-01-17T14:22:39.956Z,934.96
2018-01-17T14:23:39.944Z,934.92
2018-01-17T14:24:40.063Z,934.91
2018-01-17T14:25:39.952Z,934.91
2018-01-17T14:26:39.956Z,934.92
2018-01-17T14:27:39.980Z,934.91
2018-01-17T14:28:39.962Z,934.92
2018-01-17T14:29:39.982Z,934.93
2018-01-17T14:30:39.985Z,934.96
2018-01-17T14:31:39.988Z,934.94
2018-01-17T14:32:39.996Z,934.93
2018-01-17T14:33:39.996Z,934.89
2018-01-17T14:34:39.990Z,934.79
2018-01-17T14:35:39.988Z,934.85
2018-01-17T14:36:39.992Z,934.85
2018-01-17T14:37:39.994Z,934.88
2018-01-17T14:38:40.019Z,934.83
2018-01-17T14:39:40.017Z,934.82
2018-01-17T14:40:40.005Z,934.80
2018-01-17T14:41:40.024Z,934.83
2018-01-17T14:42:40.012Z,934.81
2018-01-17T14:43:40.014Z,934.80
2018-01-17T14:44:40.017Z,934.80
2018-01-17T14:45:40.035Z,934.81
2018-01-17T14:46:40.038Z,934.85
2018-01-17T14:47:40.044Z,934.82
2018-01-17T14:48:40.042Z,934.80
2018-01-17T14:49:40.045Z,934.81
2018-01-17T14:50:40.038Z,934.78
2018-01-17T14:51:40.048Z,934.76
2018-01-17T14:52:40.051Z,934.79
2018-01-17T14:53:40.054Z,934.79
2018-01-17T14:54:40.041Z,934.80
2018-01-17T14:55:40.058Z,934.79
2018-01-17T14:56:40.046Z,934.79
2018-01-17T14:57:40.067Z,934.76
2018-01-17T14:58:40.050Z,934.78
2018-01-17T14:59:40.052Z,934.75
2018-01-17T15:00:40.070Z,934.79
2018-01-17T15:01:40.072Z,934.74
2018-01-17T15:02:40.075Z,934.75
2018-01-17T15:03:40.084Z,934.72
2018-01-17T15:04:40.084Z,934.71
2018-01-17T15:05:40.087Z,934.74
2018-01-17T15:06:40.074Z,934.73
2018-01-17T15:07:40.075Z,934.76
2018-01-17T15:08:40.074Z,934.70
2018-01-17T15:09:40.077Z,934.74
2018-01-17T15:10:40.098Z,934.70
2018-01-17T15:11:40.100Z,934.70
2018-01-17T15:12:40.098Z,934.67
2018-01-17T15:13:40.102Z,934.73
2018-01-17T15:14:40.093Z,934.68
2018-01-17T15:15:40.089Z,934.69
2018-01-17T15:16:40.097Z,934.69
2018-01-17T15:17:40.099Z,934.69
2018-01-17T15:18:40.112Z,934.66
2018-01-17T15:19:40.114Z,934.63
2018-01-17T15:20:40.116Z,934.61
2018-01-17T15:21:40.122Z,934.60
2018-01-17T15:22:40.110Z,934.60
2018-01-17T15:23:40.126Z,934.62
2018-01-17T15:24:40.124Z,934.54
2018-01-17T15:25:40.127Z,934.56
2018-01-17T15:26:40.134Z,934.48
2018-01-17T15:27:40.116Z,934.48
2018-01-17T15:28:40.134Z,934.48
2018-01-17T15:29:40.126Z,934.48
2018-01-17T15:30:40.144Z,934.52
2018-01-17T15:31:40.146Z,934.52
2018-01-17T15:32:40.145Z,934.51
2018-01-17T15:33:40.147Z,934.53
2018-01-17T15:34:40.155Z,934.53
2018-01-17T15:35:40.141Z,934.57
2018-01-17T15:36:40.139Z,934.52
2018-01-17T15:37:40.163Z,934.52
2018-01-17T15:38:40.152Z,934.51
2018-01-17T15:39:40.164Z,934.53
2018-01-17T15:40:40.152Z,934.56
2018-01-17T15:41:40.177Z,934.50
2018-01-17T15:42:40.163Z,934.53
2018-01-17T15:43:40.175Z,934.49
2018-01-17T15:44:40.164Z,934.47
2018-01-17T15:45:40.182Z,934.44
2018-01-17T15:46:40.186Z,934.43
2018-01-17T15:47:40.192Z,934.45
2018-01-17T15:48:40.174Z,934.45
2018-01-17T15:49:40.183Z,934.47
2018-01-17T15:50:40.186Z,934.45
2018-01-17T15:51:40.192Z,934.41
2018-01-17T15:52:40.202Z,934.41
2018-01-17T15:53:40.192Z,934.39
2018-01-17T15:54:40.212Z,934.36
2018-01-17T15:55:40.216Z,934.34
2018-01-17T15:56:40.202Z,934.34
2018-01-17T15:57:40.216Z,934.31
2018-01-17T15:58:40.208Z,934.28
2018-01-17T15:59:40.206Z,934.26
2018-01-17T16:00:40.225Z,934.27
2018-01-17T16:01:40.232Z,934.28
2018-01-17T16:02:40.233Z,934.28
2018-01-17T16:03:40.233Z,934.24
2018-01-17T16:04:40.289Z,934.24
2018-01-17T16:05:40.243Z,934.21
2018-01-17T16:06:40.246Z,934.21
2018-01-17T16:07:40.244Z,934.20
2018-01-17T16:08:40.247Z,934.20
2018-01-17T16:09:40.255Z,934.17
2018-01-17T16:10:40.254Z,934.12
2018-01-17T16:11:40.256Z,934.09
2018-01-17T16:12:40.269Z,934.08
2018-01-17T16:13:40.264Z,934.07
2018-01-17T16:14:40.264Z,934.09
2018-01-17T16:15:40.275Z,934.09
2018-01-17T16:16:40.274Z,934.12
2018-01-17T16:17:40.273Z,934.08
2018-01-17T16:18:40.280Z,934.05
2018-01-17T16:19:40.282Z,934.02
2018-01-17T16:20:40.285Z,934.02
2018-01-17T16:21:40.288Z,933.99
2018-01-17T16:22:40.291Z,933.96
2018-01-17T16:23:40.297Z,933.90
2018-01-17T16:24:40.298Z,933.83
2018-01-17T16:25:40.300Z,933.87
2018-01-17T16:26:40.302Z,933.84
2018-01-17T16:27:40.301Z,933.84
2018-01-17T16:28:40.308Z,933.81
2018-01-17T16:29:40.310Z,933.80
2018-01-17T16:30:40.310Z,933.83
2018-01-17T16:31:40.316Z,933.85
2018-01-17T16:32:40.319Z,933.89
2018-01-17T16:33:40.322Z,933.85
2018-01-17T16:34:40.325Z,933.88
2018-01-17T16:35:40.328Z,933.86
2018-01-17T16:36:40.330Z,933.81
2018-01-17T16:37:40.329Z,933.82
2018-01-17T16:38:40.337Z,933.77
2018-01-17T16:39:40.378Z,933.81
2018-01-17T16:40:40.341Z,933.76
2018-01-17T16:41:40.369Z,933.81
2018-01-17T16:42:40.349Z,933.83
2018-01-17T16:43:40.349Z,933.80
2018-01-17T16:44:40.353Z,933.81
2018-01-17T16:45:40.355Z,933.85
2018-01-17T16:46:40.359Z,933.90
2018-01-17T16:47:40.362Z,933.87
2018-01-17T16:48:40.364Z,933.87
2018-01-17T16:49:40.368Z,933.86
2018-01-17T16:50:40.369Z,933.80
2018-01-17T16:51:40.372Z,933.79
2018-01-17T16:52:40.375Z,933.78
2018-01-17T16:53:40.378Z,933.78
2018-01-17T16:54:40.383Z,933.79
2018-01-17T16:55:40.383Z,933.77
2018-01-17T16:56:40.390Z,933.76
2018-01-17T16:57:40.388Z,933.69
2018-01-17T16:58:40.391Z,933.64
2018-01-17T16:59:40.393Z,933.59
2018-01-17T17:00:40.396Z,933.71
2018-01-17T17:01:40.398Z,933.71
2018-01-17T17:02:40.401Z,933.64
2018-01-17T17:03:40.403Z,933.58
2018-01-17T17:04:40.405Z,933.70
2018-01-17T17:05:40.407Z,933.74
2018-01-17T17:06:40.412Z,933.75
2018-01-17T17:07:40.414Z,933.77
2018-01-17T17:08:40.413Z,933.72
2018-01-17T17:09:40.416Z,933.70
2018-01-17T17:10:40.417Z,933.75
2018-01-17T17:11:40.418Z,933.76
2018-01-17T17:12:40.420Z,933.70
2018-01-17T17:13:40.421Z,933.67
2018-01-17T17:14:40.423Z,933.64
2018-01-17T17:15:40.423Z,933.64
2018-01-17T17:16:40.425Z,933.62
2018-01-17T17:17:40.426Z,933.60
2018-01-17T17:18:40.433Z,933.56
2018-01-17T17:19:40.428Z,933.54
2018-01-17T17:20:40.429Z,933.54
2018-01-17T17:21:40.431Z,933.53
2018-01-17T17:22:40.433Z,933.54
2018-01-17T17:23:40.433Z,933.51
2018-01-17T17:24:40.435Z,933.47
2018-01-17T17:25:40.435Z,933.48
2018-01-17T17:26:40.437Z,933.41
2018-01-17T17:27:40.439Z,933.38
2018-01-17T17:28:40.439Z,933.41
2018-01-17T17:29:40.448Z,933.39
2018-01-17T17:30:40.438Z,933.36
2018-01-17T17:31:40.442Z,933.36
2018-01-17T17:32:40.440Z,933.41
2018-01-17T17:33:40.445Z,933.42
2018-01-17T17:34:40.449Z,933.45
2018-01-17T17:35:40.446Z,933.48
2018-01-17T17:36:40.447Z,933.47
2018-01-17T17:37:40.445Z,933.47
2018-01-17T17:38:40.450Z,933.50
2018-01-17T17:39:40.452Z,933.46
2018-01-17T17:40:40.451Z,933.51
2018-01-17T17:41:40.457Z,933.54
2018-01-17T17:42:40.453Z,933.52
2018-01-17T17:43:40.449Z,933.50
2018-01-17T17:44:40.455Z,933.48
2018-01-17T17:45:40.455Z,933.49
2018-01-17T17:46:40.452Z,933.54
2018-01-17T17:47:40.456Z,933.50
2018-01-17T17:48:40.457Z,933.55
2018-01-17T17:49:40.458Z,933.60
2018-01-17T17:50:40.459Z,933.63
2018-01-17T17:51:40.458Z,933.66
2018-01-17T17:52:40.456Z,933.63
2018-01-17T17:53:40.460Z,933.77
2018-01-17T17:54:40.460Z,933.70
2018-01-17T17:55:40.459Z,933.73
2018-01-17T17:56:40.459Z,933.80
2018-01-17T17:57:40.456Z,933.73
2018-01-17T17:58:40.491Z,933.70
2018-01-17T17:59:40.455Z,933.67
2018-01-17T18:00:40.461Z,933.72
2018-01-17T18:01:40.460Z,933.60
2018-01-17T18:02:40.456Z,933.62
2018-01-17T18:03:40.460Z,933.60
2018-01-17T18:04:40.458Z,933.54
2018-01-17T18:05:40.458Z,933.47
2018-01-17T18:06:40.458Z,933.46
2018-01-17T18:07:40.453Z,933.38
2018-01-17T18:08:40.456Z,933.37
2018-01-17T18:09:40.452Z,933.31
2018-01-17T18:10:40.452Z,933.27
2018-01-17T18:11:40.455Z,933.33
2018-01-17T18:12:40.450Z,933.31
2018-01-17T18:13:40.454Z,933.44
2018-01-17T18:14:40.454Z,933.35
2018-01-17T18:15:40.452Z,933.42
2018-01-17T18:16:40.452Z,933.44
2018-01-17T18:17:40.452Z,933.52
2018-01-17T18:18:40.451Z,933.49
2018-01-17T18:19:40.450Z,933.50
2018-01-17T18:20:40.449Z,933.52
2018-01-17T18:21:40.444Z,933.49
2018-01-17T18:22:40.448Z,933.51
2018-01-17T18:23:40.447Z,933.46
2018-01-17T18:24:40.449Z,933.45
2018-01-17T18:25:40.445Z,933.48
2018-01-17T18:26:40.445Z,933.42
2018-01-17T18:27:40.443Z,933.47
2018-01-17T18:28:40.443Z,933.42
2018-01-17T18:29:40.443Z,933.45
2018-01-17T18:30:40.443Z,933.42
2018-01-17T18:31:40.436Z,933.35
2018-01-17T18:32:40.440Z,933.33
2018-01-17T18:33:40.439Z,933.28
2018-01-17T18:34:40.434Z,933.25
2018-01-17T18:35:40.436Z,933.22
2018-01-17T18:36:40.436Z,933.25
2018-01-17T18:37:40.446Z,933.21
2018-01-17T18:38:40.435Z,933.17
2018-01-17T18:39:40.433Z,933.12
2018-01-17T18:40:40.430Z,933.10
2018-01-17T18:41:40.432Z,933.11
2018-01-17T18:42:40.428Z,933.10
2018-01-17T18:43:40.430Z,933.08
2018-01-17T18:44:40.426Z,933.03
2018-01-17T18:45:40.432Z,932.98
2018-01-17T18:46:40.427Z,932.99
2018-01-17T18:47:40.427Z,932.97
2018-01-17T18:48:40.427Z,933.08
2018-01-17T18:49:40.428Z,933.09
2018-01-17T18:50:40.427Z,933.12
2018-01-17T18:51:40.425Z,933.16
2018-01-17T18:52:40.425Z,933.19
2018-01-17T18:53:40.425Z,933.16
2018-01-17T18:54:40.425Z,933.14
2018-01-17T18:55:40.424Z,933.14
2018-01-17T18:56:40.424Z,933.11
2018-01-17T18:57:40.423Z,933.04
2018-01-17T18:58:40.425Z,933.04
2018-01-17T18:59:40.424Z,933.01
2018-01-17T19:00:40.423Z,933.06
2018-01-17T19:01:40.418Z,933.01
2018-01-17T19:02:40.419Z,933.02
2018-01-17T19:03:40.421Z,932.97
2018-01-17T19:04:40.422Z,932.94
2018-01-17T19:05:40.426Z,932.88
2018-01-17T19:06:40.423Z,932.82
2018-01-17T19:07:40.418Z,932.76
2018-01-17T19:08:40.422Z,932.75
2018-01-17T19:09:40.422Z,932.75
2018-01-17T19:10:40.418Z,932.73
2018-01-17T19:11:40.422Z,932.69
2018-01-17T19:12:40.423Z,932.67
2018-01-17T19:13:40.419Z,932.74
2018-01-17T19:14:40.424Z,932.75
2018-01-17T19:15:40.423Z,932.76
2018-01-17T19:16:40.426Z,932.81
2018-01-17T19:17:40.426Z,932.77
2018-01-17T19:18:40.425Z,932.71
2018-01-17T19:19:40.425Z,932.74
2018-01-17T19:20:40.425Z,932.75
2018-01-17T19:21:40.422Z,932.65
2018-01-17T19:22:40.428Z,932.73
2018-01-17T19:23:40.426Z,932.72
2018-01-17T19:24:40.422Z,932.73
2018-01-17T19:25:40.527Z,932.73
2018-01-17T19:26:40.428Z,932.73
2018-01-17T19:27:40.427Z,932.75
2018-01-17T19:28:40.429Z,932.70
2018-01-17T19:29:40.424Z,932.78
2018-01-17T19:30:40.428Z,932.76
2018-01-17T19:31:40.428Z,932.82
2018-01-17T19:32:40.428Z,932.79
2018-01-17T19:33:40.428Z,932.78
2018-01-17T19:34:40.428Z,932.80
2018-01-17T19:35:40.428Z,932.70
2018-01-17T19:36:40.427Z,932.63
2018-01-17T19:37:40.428Z,932.65
2018-01-17T19:38:40.428Z,932.62
2018-01-17T19:39:40.427Z,932.58
2018-01-17T19:40:40.426Z,932.58
2018-01-17T19:41:40.428Z,932.54
2018-01-17T19:42:40.426Z,932.55
2018-01-17T19:43:40.429Z,932.54
2018-01-17T19:44:40.425Z,932.53
2018-01-17T19:45:40.425Z,932.49
2018-01-17T19:46:40.425Z,932.45
2018-01-17T19:47:40.424Z,932.48
2018-01-17T19:48:40.424Z,932.46
2018-01-17T19:49:40.427Z,932.49
2018-01-17T19:50:40.423Z,932.50
2018-01-17T19:51:40.421Z,932.47
2018-01-17T19:52:40.422Z,932.51
2018-01-17T19:53:40.421Z,932.48
2018-01-17T19:54:40.420Z,932.51
2018-01-17T19:55:40.469Z,932.47
2018-01-17T19:56:40.418Z,932.51
2018-01-17T19:57:40.418Z,932.51
2018-01-17T19:58:40.417Z,932.51
2018-01-17T19:59:40.419Z,932.50
2018-01-17T20:00:40.415Z,932.49
2018-01-17T20:01:40.417Z,932.45
2018-01-17T20:02:40.413Z,932.40
2018-01-17T20:03:40.412Z,932.37
2018-01-17T20:04:40.411Z,932.34
2018-01-17T20:05:40.414Z,932.37
2018-01-17T20:06:40.410Z,932.39
2018-01-17T20:07:40.407Z,932.47
2018-01-17T20:08:40.411Z,932.48
2018-01-17T20:09:40.406Z,932.51
2018-01-17T20:10:40.444Z,932.48
2018-01-17T20:11:40.407Z,932.47
2018-01-17T20:12:40.406Z,932.38
2018-01-17T20:13:40.402Z,932.35
2018-01-17T20:14:40.405Z,932.35
2018-01-17T20:15:40.398Z,932.33
2018-01-17T20:16:40.399Z,932.32
2018-01-17T20:17:40.400Z,932.32
2018-01-17T20:18:40.437Z,932.30
2018-01-17T20:19:40.394Z,932.28
2018-01-17T20:20:40.396Z,932.28
2018-01-17T20:21:40.392Z,932.31
2018-01-17T20:22:40.394Z,932.31
2018-01-17T20:23:40.392Z,932.34
2018-01-17T20:24:40.388Z,932.34
2018-01-17T20:25:40.390Z,932.32
2018-01-17T20:26:40.389Z,932.32
2018-01-17T20:27:40.387Z,932.32
2018-01-17T20:28:40.386Z,932.34
2018-01-17T20:29:40.381Z,932.38
2018-01-17T20:30:40.383Z,932.42
2018-01-17T20:31:40.382Z,932.44
2018-01-17T20:32:40.380Z,932.50
2018-01-17T20:33:40.375Z,932.52
2018-01-17T20:34:40.377Z,932.54
2018-01-17T20:35:40.375Z,932.65
2018-01-17T20:36:40.374Z,932.66
2018-01-17T20:37:40.354Z,932.70
2018-01-17T20:38:40.371Z,932.73
2018-01-17T20:39:40.349Z,932.80
2018-01-17T20:40:40.349Z,932.80
2018-01-17T20:41:40.366Z,932.84
2018-01-17T20:42:40.346Z,932.86
2018-01-17T20:43:40.343Z,932.92
2018-01-17T20:44:40.342Z,932.96
2018-01-17T20:45:40.359Z,932.95
2018-01-17T20:46:40.358Z,932.93
2018-01-17T20:47:40.336Z,932.94
2018-01-17T20:48:40.335Z,932.93
2018-01-17T20:49:40.353Z,932.91
2018-01-17T20:50:40.351Z,932.96
2018-01-17T20:51:40.351Z,932.96
2018-01-17T20:52:40.328Z,932.97
2018-01-17T20:53:40.346Z,933.00
2018-01-17T20:54:40.344Z,933.06
2018-01-17T20:55:40.323Z,933.10
2018-01-17T20:56:40.341Z,933.09
2018-01-17T20:57:40.320Z,933.10
2018-01-17T20:58:40.319Z,933.08
2018-01-17T20:59:40.317Z,933.07
2018-01-17T21:00:40.335Z,933.04
2018-01-17T21:01:40.336Z,933.08
2018-01-17T21:02:40.313Z,933.07
2018-01-17T21:03:40.310Z,933.06
2018-01-17T21:04:40.309Z,933.10
2018-01-17T21:05:40.326Z,933.10
2018-01-17T21:06:40.305Z,933.10
2018-01-17T21:07:40.303Z,933.12
2018-01-17T21:08:40.301Z,933.13
2018-01-17T21:09:40.300Z,933.16
2018-01-17T21:10:40.312Z,933.16
2018-01-17T21:11:40.297Z,933.22
2018-01-17T21:12:40.294Z,933.26
2018-01-17T21:13:40.293Z,933.30
2018-01-17T21:14:40.311Z,933.34
2018-01-17T21:15:40.292Z,933.39
2018-01-17T21:16:40.288Z,933.41
2018-01-17T21:17:40.305Z,933.41
2018-01-17T21:18:40.285Z,933.43
2018-01-17T21:19:40.301Z,933.39
2018-01-17T21:20:40.280Z,933.39
2018-01-17T21:21:40.298Z,933.38
2018-01-17T21:22:40.296Z,933.42
2018-01-17T21:23:40.274Z,933.42
2018-01-17T21:24:40.292Z,933.41
2018-01-17T21:25:40.290Z,933.41
2018-01-17T21:26:40.288Z,933.38
2018-01-17T21:27:40.285Z,933.35
2018-01-17T21:28:40.290Z,933.37
2018-01-17T21:29:40.263Z,933.35
2018-01-17T21:30:40.261Z,933.36
2018-01-17T21:31:40.278Z,933.33
2018-01-17T21:32:40.276Z,933.30
2018-01-17T21:33:40.255Z,933.33
2018-01-17T21:34:40.273Z,933.29
2018-01-17T21:35:40.251Z,933.33
2018-01-17T21:36:40.268Z,933.33
2018-01-17T21:37:40.248Z,933.38
2018-01-17T21:38:40.264Z,933.35
2018-01-17T21:39:40.261Z,933.42
2018-01-17T21:40:40.259Z,933.44
2018-01-17T21:41:40.258Z,933.47
2018-01-17T21:42:40.237Z,933.52
2018-01-17T21:43:40.234Z,933.54
2018-01-17T21:44:40.251Z,933.60
2018-01-17T21:45:40.245Z,933.64
2018-01-17T21:46:40.247Z,933.65
2018-01-17T21:47:40.245Z,933.69
2018-01-17T21:48:40.239Z,933.70
2018-01-17T21:49:40.237Z,933.68
2018-01-17T21:50:40.235Z,933.69
2018-01-17T21:51:40.232Z,933.73
2018-01-17T21:52:40.230Z,933.70
2018-01-17T21:53:40.232Z,933.71
2018-01-17T21:54:40.227Z,933.67
2018-01-17T21:55:40.224Z,933.67
2018-01-17T21:56:40.222Z,933.60
2018-01-17T21:57:40.220Z,933.53
2018-01-17T21:58:40.219Z,933.49
2018-01-17T21:59:40.215Z,933.48
2018-01-17T22:00:40.214Z,933.47
2018-01-17T22:01:40.211Z,933.47
2018-01-17T22:02:40.211Z,933.49
2018-01-17T22:03:40.252Z,933.49
2018-01-17T22:04:40.205Z,933.50
2018-01-17T22:05:40.303Z,933.47
2018-01-17T22:06:40.201Z,933.47
2018-01-17T22:07:40.198Z,933.45
2018-01-17T22:08:40.196Z,933.40
2018-01-17T22:09:40.194Z,933.35
2018-01-17T22:10:40.192Z,933.34
2018-01-17T22:11:40.189Z,933.36
2018-01-17T22:12:40.188Z,933.32
2018-01-17T22:13:40.186Z,933.29
2018-01-17T22:14:40.184Z,933.27
2018-01-17T22:15:40.181Z,933.27
2018-01-17T22:16:40.179Z,933.24
2018-01-17T22:17:40.177Z,933.26
2018-01-17T22:18:40.178Z,933.27
2018-01-17T22:19:40.172Z,933.32
2018-01-17T22:20:40.174Z,933.28
2018-01-17T22:21:40.171Z,933.31
2018-01-17T22:22:40.170Z,933.31
2018-01-17T22:23:40.167Z,933.30
2018-01-17T22:24:40.165Z,933.29
2018-01-17T22:25:40.163Z,933.35
2018-01-17T22:26:40.160Z,933.35
2018-01-17T22:27:40.154Z,933.35
2018-01-17T22:28:40.201Z,933.35
2018-01-17T22:29:40.151Z,933.35
2018-01-17T22:30:40.152Z,933.36
2018-01-17T22:31:40.145Z,933.38
2018-01-17T22:32:40.138Z,933.39
2018-01-17T22:33:40.141Z,933.43
2018-01-17T22:34:40.139Z,933.47
2018-01-17T22:35:40.246Z,933.53
2018-01-17T22:36:40.133Z,933.54
2018-01-17T22:37:40.127Z,933.55
2018-01-17T22:38:40.130Z,933.56
2018-01-17T22:39:40.126Z,933.58
2018-01-17T22:40:40.127Z,933.57
2018-01-17T22:41:40.122Z,933.61
2018-01-17T22:42:40.120Z,933.62
2018-01-17T22:43:40.119Z,933.63
2018-01-17T22:44:40.122Z,933.62
2018-01-17T22:45:40.117Z,933.64
2018-01-17T22:46:40.111Z,933.66
2018-01-17T22:47:40.112Z,933.64
2018-01-17T22:48:40.106Z,933.71
2018-01-17T22:49:40.106Z,933.76
2018-01-17T22:50:40.106Z,933.81
2018-01-17T22:51:40.103Z,933.85
2018-01-17T22:52:40.101Z,933.84
2018-01-17T22:53:40.094Z,933.85
2018-01-17T22:54:40.093Z,933.84
2018-01-17T22:55:40.090Z,933.84
2018-01-17T22:56:40.088Z,933.83
2018-01-17T22:57:40.086Z,933.86
2018-01-17T22:58:40.084Z,933.86
2018-01-17T22:59:40.080Z,933.87
2018-01-17T23:00:40.079Z,933.81
2018-01-17T23:01:40.077Z,933.79
2018-01-17T23:02:40.060Z,933.77
2018-01-17T23:03:40.056Z,933.72
2018-01-17T23:04:40.077Z,933.66
2018-01-17T23:05:40.053Z,933.66
2018-01-17T23:06:40.050Z,933.66
2018-01-17T23:07:40.049Z,933.66
2018-01-17T23:08:40.061Z,933.65
2018-01-17T23:09:40.043Z,933.68
2018-01-17T23:10:40.136Z,933.69
2018-01-17T23:11:40.052Z,933.67
2018-01-17T23:12:40.036Z,933.67
2018-01-17T23:13:40.049Z,933.70